Rechercher aéroport 
image banner adimage banner adimage banner ad
image banner ad

KRHV - Reid-Hillview Of Santa Clara County

Situé à San Jose, United States

ICAO - RHV, IATA - RHV

Données fournies par Airmate  

Information générale

Coordonnées: N37°19'58" W121°49'11"
Élévation : 135 feet MSL.
Variation magnétique : 16° East
Voir autres Aéroports à California

Données opérationnelles

Special qualification required
Heure actuelle UTC:
Heure actuelle locale:
Météo
METAR: KRHV 251547Z 00000KT 10SM SKC 17/12 A2999
Voir NOTAMs / SUP AIP / TFR affectant cet aéroport [VIEW]
Fréquences de communication: [VIEW]

Pistes:

Identifiant RWYQFULongueur (ft)Largeur (ft)SurfaceLDA (ft)
13R143°309975ASPH
31L323°309975ASPH
13L143°310075ASPH
31R323°310075ASPH

Coordonnées de l'aéroport

Adresse: San Jose United States

Autres services d'aviation

Écoles de pilotage

Aerodynamic Aviation - San Jose

Aerodynamic Aviation - San Jose

Nice Air

Nice Air

Trade Winds Aviation

Trade Winds Aviation

Air Accord

Air Accord
wakita@air-accord.com+1(408)258-6321

Squadron 2

Squadron 2
info@squadron2.com+1(408)648-2008

Vue satellite de KRHV